sensor_id;sensor_type;location;lat;lon;timestamp;P1;durP1;ratioP1;P2;durP2;ratioP2
35550;SDS011;21655;46.056;13.616;2023-02-26T00:02:11;0.70;;;0.60;;
35550;SDS011;21655;46.056;13.616;2023-02-26T00:04:36;2.10;;;0.60;;
35550;SDS011;21655;46.056;13.616;2023-02-26T00:07:02;0.63;;;0.50;;
35550;SDS011;21655;46.056;13.616;2023-02-26T00:09:30;1.00;;;0.50;;
35550;SDS011;21655;46.056;13.616;2023-02-26T00:11:56;0.47;;;0.47;;
35550;SDS011;21655;46.056;13.616;2023-02-26T00:14:23;0.70;;;0.50;;
35550;SDS011;21655;46.056;13.616;2023-02-26T00:16:57;0.50;;;0.50;;
35550;SDS011;21655;46.056;13.616;2023-02-26T00:19:49;1.70;;;0.50;;
35550;SDS011;21655;46.056;13.616;2023-02-26T00:22:14;0.50;;;0.50;;
35550;SDS011;21655;46.056;13.616;2023-02-26T00:24:40;0.60;;;0.60;;
35550;SDS011;21655;46.056;13.616;2023-02-26T00:27:06;0.50;;;0.50;;
35550;SDS011;21655;46.056;13.616;2023-02-26T00:29:32;0.50;;;0.50;;
35550;SDS011;21655;46.056;13.616;2023-02-26T00:31:58;0.88;;;0.65;;
35550;SDS011;21655;46.056;13.616;2023-02-26T00:34:23;0.50;;;0.50;;
35550;SDS011;21655;46.056;13.616;2023-02-26T00:42:35;0.95;;;0.60;;
35550;SDS011;21655;46.056;13.616;2023-02-26T00:45:01;0.43;;;0.43;;
35550;SDS011;21655;46.056;13.616;2023-02-26T00:53:20;1.42;;;0.60;;
35550;SDS011;21655;46.056;13.616;2023-02-26T00:55:40;1.10;;;0.60;;
35550;SDS011;21655;46.056;13.616;2023-02-26T00:58:06;0.50;;;0.50;;
35550;SDS011;21655;46.056;13.616;2023-02-26T01:00:31;1.20;;;0.80;;
35550;SDS011;21655;46.056;13.616;2023-02-26T01:02:57;2.28;;;0.50;;
35550;SDS011;21655;46.056;13.616;2023-02-26T01:05:23;0.57;;;0.50;;
35550;SDS011;21655;46.056;13.616;2023-02-26T01:10:33;2.72;;;0.77;;
35550;SDS011;21655;46.056;13.616;2023-02-26T01:12:58;3.20;;;0.50;;
35550;SDS011;21655;46.056;13.616;2023-02-26T01:15:24;0.43;;;0.43;;
35550;SDS011;21655;46.056;13.616;2023-02-26T01:17:52;0.50;;;0.50;;
35550;SDS011;21655;46.056;13.616;2023-02-26T01:20:30;0.98;;;0.50;;
35550;SDS011;21655;46.056;13.616;2023-02-26T01:23:06;0.60;;;0.50;;
35550;SDS011;21655;46.056;13.616;2023-02-26T01:25:36;5.07;;;0.90;;
35550;SDS011;21655;46.056;13.616;2023-02-26T01:28:05;1.13;;;0.60;;
35550;SDS011;21655;46.056;13.616;2023-02-26T01:30:31;1.55;;;0.50;;
35550;SDS011;21655;46.056;13.616;2023-02-26T01:33:01;0.52;;;0.50;;
35550;SDS011;21655;46.056;13.616;2023-02-26T01:35:52;0.50;;;0.45;;
35550;SDS011;21655;46.056;13.616;2023-02-26T01:38:26;1.35;;;0.50;;
35550;SDS011;21655;46.056;13.616;2023-02-26T01:41:09;0.50;;;0.50;;
35550;SDS011;21655;46.056;13.616;2023-02-26T01:46:27;4.03;;;0.50;;
35550;SDS011;21655;46.056;13.616;2023-02-26T01:48:59;0.50;;;0.50;;
35550;SDS011;21655;46.056;13.616;2023-02-26T01:54:20;1.02;;;0.63;;
35550;SDS011;21655;46.056;13.616;2023-02-26T01:56:55;0.50;;;0.50;;
35550;SDS011;21655;46.056;13.616;2023-02-26T01:59:26;0.50;;;0.50;;
35550;SDS011;21655;46.056;13.616;2023-02-26T02:01:52;0.55;;;0.50;;
35550;SDS011;21655;46.056;13.616;2023-02-26T02:04:20;1.33;;;0.55;;
35550;SDS011;21655;46.056;13.616;2023-02-26T02:06:48;0.57;;;0.50;;
35550;SDS011;21655;46.056;13.616;2023-02-26T02:09:14;1.27;;;0.65;;
35550;SDS011;21655;46.056;13.616;2023-02-26T02:11:43;0.80;;;0.70;;
35550;SDS011;21655;46.056;13.616;2023-02-26T02:14:36;0.63;;;0.50;;
35550;SDS011;21655;46.056;13.616;2023-02-26T02:19:54;0.50;;;0.50;;
35550;SDS011;21655;46.056;13.616;2023-02-26T02:23:22;0.50;;;0.50;;
35550;SDS011;21655;46.056;13.616;2023-02-26T02:31:31;0.73;;;0.52;;
35550;SDS011;21655;46.056;13.616;2023-02-26T02:34:03;0.50;;;0.50;;
35550;SDS011;21655;46.056;13.616;2023-02-26T02:36:38;1.38;;;0.60;;
35550;SDS011;21655;46.056;13.616;2023-02-26T02:39:24;0.70;;;0.60;;
35550;SDS011;21655;46.056;13.616;2023-02-26T02:41:55;0.70;;;0.57;;
35550;SDS011;21655;46.056;13.616;2023-02-26T02:44:31;0.50;;;0.50;;
35550;SDS011;21655;46.056;13.616;2023-02-26T02:47:00;0.55;;;0.50;;
35550;SDS011;21655;46.056;13.616;2023-02-26T02:49:48;0.82;;;0.60;;
35550;SDS011;21655;46.056;13.616;2023-02-26T02:52:29;2.30;;;0.52;;
35550;SDS011;21655;46.056;13.616;2023-02-26T02:55:04;1.15;;;0.63;;
35550;SDS011;21655;46.056;13.616;2023-02-26T02:57:38;1.20;;;0.50;;
35550;SDS011;21655;46.056;13.616;2023-02-26T03:00:12;0.50;;;0.50;;
35550;SDS011;21655;46.056;13.616;2023-02-26T03:05:11;0.50;;;0.50;;
35550;SDS011;21655;46.056;13.616;2023-02-26T03:07:40;0.95;;;0.93;;
35550;SDS011;21655;46.056;13.616;2023-02-26T03:10:11;3.43;;;0.60;;
35550;SDS011;21655;46.056;13.616;2023-02-26T03:12:36;0.63;;;0.50;;
35550;SDS011;21655;46.056;13.616;2023-02-26T03:15:02;1.08;;;0.60;;
35550;SDS011;21655;46.056;13.616;2023-02-26T03:20:24;0.57;;;0.52;;
35550;SDS011;21655;46.056;13.616;2023-02-26T03:23:13;0.50;;;0.50;;
35550;SDS011;21655;46.056;13.616;2023-02-26T03:25:46;0.70;;;0.55;;
35550;SDS011;21655;46.056;13.616;2023-02-26T03:28:18;0.95;;;0.73;;
35550;SDS011;21655;46.056;13.616;2023-02-26T03:33:35;0.65;;;0.60;;
35550;SDS011;21655;46.056;13.616;2023-02-26T03:36:25;1.02;;;0.60;;
35550;SDS011;21655;46.056;13.616;2023-02-26T03:39:04;0.75;;;0.50;;
35550;SDS011;21655;46.056;13.616;2023-02-26T03:41:53;0.70;;;0.50;;
35550;SDS011;21655;46.056;13.616;2023-02-26T03:44:36;0.90;;;0.52;;
35550;SDS011;21655;46.056;13.616;2023-02-26T03:47:07;3.15;;;0.50;;
35550;SDS011;21655;46.056;13.616;2023-02-26T03:49:44;0.47;;;0.47;;
35550;SDS011;21655;46.056;13.616;2023-02-26T03:52:27;0.52;;;0.50;;
35550;SDS011;21655;46.056;13.616;2023-02-26T03:54:59;8.50;;;0.80;;
35550;SDS011;21655;46.056;13.616;2023-02-26T03:57:29;0.50;;;0.50;;
35550;SDS011;21655;46.056;13.616;2023-02-26T03:59:54;0.50;;;0.50;;
35550;SDS011;21655;46.056;13.616;2023-02-26T04:02:28;0.68;;;0.60;;
35550;SDS011;21655;46.056;13.616;2023-02-26T04:05:10;0.50;;;0.50;;
35550;SDS011;21655;46.056;13.616;2023-02-26T04:07:40;0.52;;;0.50;;
35550;SDS011;21655;46.056;13.616;2023-02-26T04:10:06;0.50;;;0.50;;
35550;SDS011;21655;46.056;13.616;2023-02-26T04:12:33;1.38;;;0.60;;
35550;SDS011;21655;46.056;13.616;2023-02-26T04:14:59;0.73;;;0.60;;
35550;SDS011;21655;46.056;13.616;2023-02-26T04:17:25;0.65;;;0.60;;
35550;SDS011;21655;46.056;13.616;2023-02-26T04:19:51;0.60;;;0.60;;
35550;SDS011;21655;46.056;13.616;2023-02-26T04:22:16;3.33;;;0.50;;
35550;SDS011;21655;46.056;13.616;2023-02-26T04:24:42;2.72;;;0.68;;
35550;SDS011;21655;46.056;13.616;2023-02-26T04:27:07;0.60;;;0.55;;
35550;SDS011;21655;46.056;13.616;2023-02-26T04:29:33;0.60;;;0.50;;
35550;SDS011;21655;46.056;13.616;2023-02-26T04:31:58;0.50;;;0.50;;
35550;SDS011;21655;46.056;13.616;2023-02-26T04:34:25;1.45;;;0.60;;
35550;SDS011;21655;46.056;13.616;2023-02-26T04:36:50;1.13;;;0.52;;
35550;SDS011;21655;46.056;13.616;2023-02-26T04:39:16;3.53;;;0.68;;
35550;SDS011;21655;46.056;13.616;2023-02-26T04:41:41;0.77;;;0.60;;
35550;SDS011;21655;46.056;13.616;2023-02-26T04:44:07;1.08;;;0.55;;
35550;SDS011;21655;46.056;13.616;2023-02-26T04:46:32;0.50;;;0.50;;
35550;SDS011;21655;46.056;13.616;2023-02-26T04:48:58;0.50;;;0.50;;
35550;SDS011;21655;46.056;13.616;2023-02-26T04:51:23;0.75;;;0.60;;
35550;SDS011;21655;46.056;13.616;2023-02-26T04:53:49;0.70;;;0.60;;
35550;SDS011;21655;46.056;13.616;2023-02-26T04:56:15;0.50;;;0.50;;
35550;SDS011;21655;46.056;13.616;2023-02-26T04:58:40;1.00;;;0.90;;
35550;SDS011;21655;46.056;13.616;2023-02-26T05:01:06;3.42;;;0.60;;
35550;SDS011;21655;46.056;13.616;2023-02-26T05:03:32;0.65;;;0.60;;
35550;SDS011;21655;46.056;13.616;2023-02-26T05:05:57;2.00;;;0.70;;
35550;SDS011;21655;46.056;13.616;2023-02-26T05:08:23;0.73;;;0.60;;
35550;SDS011;21655;46.056;13.616;2023-02-26T05:10:49;0.50;;;0.50;;
35550;SDS011;21655;46.056;13.616;2023-02-26T05:13:16;0.73;;;0.55;;
35550;SDS011;21655;46.056;13.616;2023-02-26T05:15:41;2.88;;;0.77;;
35550;SDS011;21655;46.056;13.616;2023-02-26T05:18:07;0.90;;;0.60;;
35550;SDS011;21655;46.056;13.616;2023-02-26T05:20:32;0.68;;;0.60;;
35550;SDS011;21655;46.056;13.616;2023-02-26T05:22:58;0.50;;;0.50;;
35550;SDS011;21655;46.056;13.616;2023-02-26T05:25:23;1.58;;;0.68;;
35550;SDS011;21655;46.056;13.616;2023-02-26T05:27:49;0.90;;;0.60;;
35550;SDS011;21655;46.056;13.616;2023-02-26T05:30:16;1.13;;;0.70;;
35550;SDS011;21655;46.056;13.616;2023-02-26T05:32:42;0.55;;;0.50;;
35550;SDS011;21655;46.056;13.616;2023-02-26T05:35:08;0.50;;;0.50;;
35550;SDS011;21655;46.056;13.616;2023-02-26T05:37:34;0.50;;;0.50;;
35550;SDS011;21655;46.056;13.616;2023-02-26T05:40:00;0.88;;;0.50;;
35550;SDS011;21655;46.056;13.616;2023-02-26T05:42:26;0.77;;;0.52;;
35550;SDS011;21655;46.056;13.616;2023-02-26T05:44:51;0.50;;;0.50;;
35550;SDS011;21655;46.056;13.616;2023-02-26T05:47:18;0.50;;;0.50;;
35550;SDS011;21655;46.056;13.616;2023-02-26T05:49:43;0.50;;;0.50;;
35550;SDS011;21655;46.056;13.616;2023-02-26T05:52:10;0.55;;;0.50;;
35550;SDS011;21655;46.056;13.616;2023-02-26T05:54:35;1.13;;;0.70;;
35550;SDS011;21655;46.056;13.616;2023-02-26T05:57:01;0.77;;;0.50;;
35550;SDS011;21655;46.056;13.616;2023-02-26T05:59:26;1.00;;;0.60;;
35550;SDS011;21655;46.056;13.616;2023-02-26T06:01:52;1.15;;;0.60;;
35550;SDS011;21655;46.056;13.616;2023-02-26T06:04:17;0.60;;;0.60;;
35550;SDS011;21655;46.056;13.616;2023-02-26T06:06:43;2.05;;;0.50;;
35550;SDS011;21655;46.056;13.616;2023-02-26T06:09:08;1.70;;;0.68;;
35550;SDS011;21655;46.056;13.616;2023-02-26T06:11:34;0.55;;;0.50;;
35550;SDS011;21655;46.056;13.616;2023-02-26T06:14:00;3.88;;;0.60;;
35550;SDS011;21655;46.056;13.616;2023-02-26T06:16:25;0.73;;;0.60;;
35550;SDS011;21655;46.056;13.616;2023-02-26T06:18:51;1.00;;;0.70;;
35550;SDS011;21655;46.056;13.616;2023-02-26T06:21:17;0.50;;;0.50;;
35550;SDS011;21655;46.056;13.616;2023-02-26T06:23:42;2.05;;;0.80;;
35550;SDS011;21655;46.056;13.616;2023-02-26T06:26:08;1.55;;;0.70;;
35550;SDS011;21655;46.056;13.616;2023-02-26T06:28:34;0.70;;;0.60;;
35550;SDS011;21655;46.056;13.616;2023-02-26T06:31:00;1.30;;;0.90;;
35550;SDS011;21655;46.056;13.616;2023-02-26T06:33:25;4.25;;;1.70;;
35550;SDS011;21655;46.056;13.616;2023-02-26T06:35:51;1.70;;;0.90;;
35550;SDS011;21655;46.056;13.616;2023-02-26T06:38:17;1.85;;;0.95;;
35550;SDS011;21655;46.056;13.616;2023-02-26T06:40:43;0.95;;;0.60;;
35550;SDS011;21655;46.056;13.616;2023-02-26T06:43:10;0.98;;;0.70;;
35550;SDS011;21655;46.056;13.616;2023-02-26T06:45:36;3.83;;;0.85;;
35550;SDS011;21655;46.056;13.616;2023-02-26T06:48:01;0.82;;;0.60;;
35550;SDS011;21655;46.056;13.616;2023-02-26T06:50:27;0.82;;;0.60;;
35550;SDS011;21655;46.056;13.616;2023-02-26T06:52:52;1.02;;;0.60;;
35550;SDS011;21655;46.056;13.616;2023-02-26T06:55:18;2.03;;;0.50;;
35550;SDS011;21655;46.056;13.616;2023-02-26T06:57:45;0.88;;;0.60;;
35550;SDS011;21655;46.056;13.616;2023-02-26T07:00:11;1.33;;;0.80;;
35550;SDS011;21655;46.056;13.616;2023-02-26T07:02:37;1.75;;;1.00;;
35550;SDS011;21655;46.056;13.616;2023-02-26T07:05:03;0.80;;;0.80;;
35550;SDS011;21655;46.056;13.616;2023-02-26T07:07:28;1.95;;;0.80;;
35550;SDS011;21655;46.056;13.616;2023-02-26T07:09:54;0.73;;;0.60;;
35550;SDS011;21655;46.056;13.616;2023-02-26T07:12:19;7.07;;;0.70;;
35550;SDS011;21655;46.056;13.616;2023-02-26T07:14:45;0.88;;;0.60;;
35550;SDS011;21655;46.056;13.616;2023-02-26T07:17:10;1.70;;;0.70;;
35550;SDS011;21655;46.056;13.616;2023-02-26T07:22:13;3.83;;;0.70;;
35550;SDS011;21655;46.056;13.616;2023-02-26T07:24:39;0.88;;;0.70;;
35550;SDS011;21655;46.056;13.616;2023-02-26T07:27:05;1.00;;;0.70;;
35550;SDS011;21655;46.056;13.616;2023-02-26T07:29:30;1.45;;;0.55;;
35550;SDS011;21655;46.056;13.616;2023-02-26T07:31:56;1.30;;;0.70;;
35550;SDS011;21655;46.056;13.616;2023-02-26T07:34:21;0.82;;;0.70;;
35550;SDS011;21655;46.056;13.616;2023-02-26T07:36:47;1.45;;;0.80;;
35550;SDS011;21655;46.056;13.616;2023-02-26T07:39:12;0.68;;;0.60;;
35550;SDS011;21655;46.056;13.616;2023-02-26T07:41:37;4.18;;;0.65;;
35550;SDS011;21655;46.056;13.616;2023-02-26T07:44:03;0.80;;;0.60;;
35550;SDS011;21655;46.056;13.616;2023-02-26T07:46:28;1.25;;;0.75;;
35550;SDS011;21655;46.056;13.616;2023-02-26T07:48:54;2.78;;;0.70;;
35550;SDS011;21655;46.056;13.616;2023-02-26T07:51:19;0.90;;;0.60;;
35550;SDS011;21655;46.056;13.616;2023-02-26T07:53:45;1.60;;;0.70;;
35550;SDS011;21655;46.056;13.616;2023-02-26T07:56:10;1.63;;;0.70;;
35550;SDS011;21655;46.056;13.616;2023-02-26T07:58:35;1.60;;;0.90;;
35550;SDS011;21655;46.056;13.616;2023-02-26T08:01:01;1.23;;;0.60;;
35550;SDS011;21655;46.056;13.616;2023-02-26T08:03:26;2.17;;;1.10;;
35550;SDS011;21655;46.056;13.616;2023-02-26T08:05:52;1.05;;;0.70;;
35550;SDS011;21655;46.056;13.616;2023-02-26T08:08:17;2.08;;;0.70;;
35550;SDS011;21655;46.056;13.616;2023-02-26T08:10:43;1.45;;;0.70;;
35550;SDS011;21655;46.056;13.616;2023-02-26T08:13:08;0.88;;;0.60;;
35550;SDS011;21655;46.056;13.616;2023-02-26T08:15:34;2.20;;;0.70;;
35550;SDS011;21655;46.056;13.616;2023-02-26T08:17:59;1.00;;;0.70;;
35550;SDS011;21655;46.056;13.616;2023-02-26T08:20:25;0.85;;;0.65;;
35550;SDS011;21655;46.056;13.616;2023-02-26T08:22:50;1.13;;;0.70;;
35550;SDS011;21655;46.056;13.616;2023-02-26T08:25:16;1.17;;;0.70;;
35550;SDS011;21655;46.056;13.616;2023-02-26T08:27:42;1.33;;;0.80;;
35550;SDS011;21655;46.056;13.616;2023-02-26T08:30:08;0.65;;;0.60;;
35550;SDS011;21655;46.056;13.616;2023-02-26T08:32:34;1.10;;;0.65;;
35550;SDS011;21655;46.056;13.616;2023-02-26T08:35:00;0.85;;;0.50;;
35550;SDS011;21655;46.056;13.616;2023-02-26T08:37:25;0.88;;;0.77;;
35550;SDS011;21655;46.056;13.616;2023-02-26T08:39:51;1.40;;;0.65;;
35550;SDS011;21655;46.056;13.616;2023-02-26T08:42:17;1.00;;;0.70;;
35550;SDS011;21655;46.056;13.616;2023-02-26T08:44:44;1.27;;;0.63;;
35550;SDS011;21655;46.056;13.616;2023-02-26T08:47:11;1.70;;;0.68;;
35550;SDS011;21655;46.056;13.616;2023-02-26T08:49:36;2.45;;;0.90;;
35550;SDS011;21655;46.056;13.616;2023-02-26T08:52:02;5.45;;;1.00;;
35550;SDS011;21655;46.056;13.616;2023-02-26T08:54:27;1.25;;;0.75;;
35550;SDS011;21655;46.056;13.616;2023-02-26T08:56:53;2.80;;;0.85;;
35550;SDS011;21655;46.056;13.616;2023-02-26T08:59:21;1.33;;;0.70;;
35550;SDS011;21655;46.056;13.616;2023-02-26T09:01:47;0.93;;;0.70;;
35550;SDS011;21655;46.056;13.616;2023-02-26T09:04:13;1.13;;;0.70;;
35550;SDS011;21655;46.056;13.616;2023-02-26T09:06:38;7.38;;;1.00;;
35550;SDS011;21655;46.056;13.616;2023-02-26T09:09:04;1.42;;;0.70;;
35550;SDS011;21655;46.056;13.616;2023-02-26T09:11:29;2.92;;;0.70;;
35550;SDS011;21655;46.056;13.616;2023-02-26T09:13:56;0.70;;;0.60;;
35550;SDS011;21655;46.056;13.616;2023-02-26T09:16:23;2.50;;;0.65;;
35550;SDS011;21655;46.056;13.616;2023-02-26T09:18:49;1.23;;;0.70;;
35550;SDS011;21655;46.056;13.616;2023-02-26T09:21:15;1.33;;;0.60;;
35550;SDS011;21655;46.056;13.616;2023-02-26T09:23:40;1.15;;;0.60;;
35550;SDS011;21655;46.056;13.616;2023-02-26T09:26:06;0.85;;;0.63;;
35550;SDS011;21655;46.056;13.616;2023-02-26T09:28:33;0.80;;;0.70;;
35550;SDS011;21655;46.056;13.616;2023-02-26T09:30:58;1.73;;;0.80;;
35550;SDS011;21655;46.056;13.616;2023-02-26T09:33:24;1.00;;;0.70;;
35550;SDS011;21655;46.056;13.616;2023-02-26T09:35:50;1.10;;;0.77;;
35550;SDS011;21655;46.056;13.616;2023-02-26T09:38:16;1.45;;;0.80;;
35550;SDS011;21655;46.056;13.616;2023-02-26T09:43:24;1.60;;;0.80;;
35550;SDS011;21655;46.056;13.616;2023-02-26T09:46:04;1.67;;;0.75;;
35550;SDS011;21655;46.056;13.616;2023-02-26T09:48:36;2.55;;;0.80;;
35550;SDS011;21655;46.056;13.616;2023-02-26T09:51:03;1.20;;;0.88;;
35550;SDS011;21655;46.056;13.616;2023-02-26T09:53:37;2.10;;;0.93;;
35550;SDS011;21655;46.056;13.616;2023-02-26T09:56:18;1.30;;;0.82;;
35550;SDS011;21655;46.056;13.616;2023-02-26T09:58:47;1.00;;;0.73;;
35550;SDS011;21655;46.056;13.616;2023-02-26T10:01:20;4.13;;;1.02;;
35550;SDS011;21655;46.056;13.616;2023-02-26T10:06:49;1.73;;;0.90;;
35550;SDS011;21655;46.056;13.616;2023-02-26T10:12:17;1.65;;;1.00;;
35550;SDS011;21655;46.056;13.616;2023-02-26T10:14:50;1.38;;;0.80;;
35550;SDS011;21655;46.056;13.616;2023-02-26T10:19:59;1.00;;;0.80;;
35550;SDS011;21655;46.056;13.616;2023-02-26T10:22:32;2.67;;;1.10;;
35550;SDS011;21655;46.056;13.616;2023-02-26T10:25:14;1.85;;;0.75;;
35550;SDS011;21655;46.056;13.616;2023-02-26T10:27:58;1.50;;;1.05;;
35550;SDS011;21655;46.056;13.616;2023-02-26T10:30:38;3.08;;;0.80;;
35550;SDS011;21655;46.056;13.616;2023-02-26T10:35:46;1.33;;;0.90;;
35550;SDS011;21655;46.056;13.616;2023-02-26T10:38:24;1.83;;;0.95;;
35550;SDS011;21655;46.056;13.616;2023-02-26T10:40:57;1.02;;;0.80;;
35550;SDS011;21655;46.056;13.616;2023-02-26T10:43:32;2.03;;;1.10;;
35550;SDS011;21655;46.056;13.616;2023-02-26T10:46:29;1.55;;;1.00;;
35550;SDS011;21655;46.056;13.616;2023-02-26T10:51:55;2.95;;;1.10;;
35550;SDS011;21655;46.056;13.616;2023-02-26T10:54:34;3.05;;;0.80;;
35550;SDS011;21655;46.056;13.616;2023-02-26T10:57:03;2.63;;;1.00;;
35550;SDS011;21655;46.056;13.616;2023-02-26T10:59:29;1.60;;;0.90;;
35550;SDS011;21655;46.056;13.616;2023-02-26T11:01:55;1.42;;;0.93;;
35550;SDS011;21655;46.056;13.616;2023-02-26T11:04:24;2.33;;;1.15;;
35550;SDS011;21655;46.056;13.616;2023-02-26T11:06:52;1.08;;;0.75;;
35550;SDS011;21655;46.056;13.616;2023-02-26T11:12:06;1.63;;;0.90;;
35550;SDS011;21655;46.056;13.616;2023-02-26T11:14:44;10.05;;;3.08;;
35550;SDS011;21655;46.056;13.616;2023-02-26T11:19:51;2.80;;;1.10;;
35550;SDS011;21655;46.056;13.616;2023-02-26T11:22:20;2.70;;;1.10;;
35550;SDS011;21655;46.056;13.616;2023-02-26T11:24:47;1.48;;;0.90;;
35550;SDS011;21655;46.056;13.616;2023-02-26T11:27:23;1.48;;;0.90;;
35550;SDS011;21655;46.056;13.616;2023-02-26T11:30:37;1.42;;;1.00;;
35550;SDS011;21655;46.056;13.616;2023-02-26T11:32:45;2.10;;;1.00;;
35550;SDS011;21655;46.056;13.616;2023-02-26T11:35:16;2.08;;;0.90;;
35550;SDS011;21655;46.056;13.616;2023-02-26T11:37:51;1.67;;;1.05;;
35550;SDS011;21655;46.056;13.616;2023-02-26T11:43:03;2.58;;;1.20;;
35550;SDS011;21655;46.056;13.616;2023-02-26T11:45:39;2.63;;;1.00;;
35550;SDS011;21655;46.056;13.616;2023-02-26T11:48:10;2.38;;;1.27;;
35550;SDS011;21655;46.056;13.616;2023-02-26T11:50:41;2.65;;;1.15;;
35550;SDS011;21655;46.056;13.616;2023-02-26T11:53:18;1.88;;;1.15;;
35550;SDS011;21655;46.056;13.616;2023-02-26T11:55:50;1.20;;;1.00;;
35550;SDS011;21655;46.056;13.616;2023-02-26T11:58:19;2.45;;;1.25;;
35550;SDS011;21655;46.056;13.616;2023-02-26T12:00:47;2.20;;;1.20;;
35550;SDS011;21655;46.056;13.616;2023-02-26T12:03:25;1.70;;;1.02;;
35550;SDS011;21655;46.056;13.616;2023-02-26T12:05:56;1.90;;;1.17;;
35550;SDS011;21655;46.056;13.616;2023-02-26T12:08:30;2.25;;;1.20;;
35550;SDS011;21655;46.056;13.616;2023-02-26T12:18:59;2.15;;;1.10;;
35550;SDS011;21655;46.056;13.616;2023-02-26T12:27:22;2.00;;;1.10;;
35550;SDS011;21655;46.056;13.616;2023-02-26T12:33:11;1.73;;;1.27;;
35550;SDS011;21655;46.056;13.616;2023-02-26T12:47:46;2.65;;;1.27;;
35550;SDS011;21655;46.056;13.616;2023-02-26T12:58:44;2.70;;;1.00;;
35550;SDS011;21655;46.056;13.616;2023-02-26T13:07:04;1.67;;;1.08;;
35550;SDS011;21655;46.056;13.616;2023-02-26T13:09:50;3.15;;;1.20;;
35550;SDS011;21655;46.056;13.616;2023-02-26T13:18:31;1.90;;;1.10;;
35550;SDS011;21655;46.056;13.616;2023-02-26T13:21:02;4.13;;;1.10;;
35550;SDS011;21655;46.056;13.616;2023-02-26T13:26:31;2.55;;;1.10;;
35550;SDS011;21655;46.056;13.616;2023-02-26T13:31:54;2.83;;;1.30;;
35550;SDS011;21655;46.056;13.616;2023-02-26T13:40:50;2.17;;;1.00;;
35550;SDS011;21655;46.056;13.616;2023-02-26T13:42:47;1.67;;;1.10;;
35550;SDS011;21655;46.056;13.616;2023-02-26T13:48:16;7.57;;;1.13;;
35550;SDS011;21655;46.056;13.616;2023-02-26T13:53:59;1.45;;;0.90;;
35550;SDS011;21655;46.056;13.616;2023-02-26T14:09:35;1.60;;;1.00;;
35550;SDS011;21655;46.056;13.616;2023-02-26T14:12:23;2.50;;;0.90;;
35550;SDS011;21655;46.056;13.616;2023-02-26T14:17:46;1.38;;;0.98;;
35550;SDS011;21655;46.056;13.616;2023-02-26T14:20:19;5.15;;;1.20;;
35550;SDS011;21655;46.056;13.616;2023-02-26T14:22:46;1.15;;;0.80;;
35550;SDS011;21655;46.056;13.616;2023-02-26T14:31:06;1.30;;;0.90;;
35550;SDS011;21655;46.056;13.616;2023-02-26T14:33:43;1.35;;;0.90;;
35550;SDS011;21655;46.056;13.616;2023-02-26T14:36:19;2.58;;;1.10;;
35550;SDS011;21655;46.056;13.616;2023-02-26T14:38:57;4.03;;;1.30;;
35550;SDS011;21655;46.056;13.616;2023-02-26T14:41:30;1.98;;;1.05;;
35550;SDS011;21655;46.056;13.616;2023-02-26T14:46:35;4.05;;;1.00;;
35550;SDS011;21655;46.056;13.616;2023-02-26T14:49:00;3.35;;;1.33;;
35550;SDS011;21655;46.056;13.616;2023-02-26T15:05:43;3.28;;;1.15;;
35550;SDS011;21655;46.056;13.616;2023-02-26T15:08:19;4.07;;;1.10;;
35550;SDS011;21655;46.056;13.616;2023-02-26T15:13:45;1.42;;;0.90;;
35550;SDS011;21655;46.056;13.616;2023-02-26T15:16:25;3.30;;;1.00;;
35550;SDS011;21655;46.056;13.616;2023-02-26T15:24:30;1.73;;;0.90;;
35550;SDS011;21655;46.056;13.616;2023-02-26T15:26:58;2.38;;;1.27;;
35550;SDS011;21655;46.056;13.616;2023-02-26T15:29:28;2.22;;;1.10;;
35550;SDS011;21655;46.056;13.616;2023-02-26T15:31:57;1.30;;;1.00;;
35550;SDS011;21655;46.056;13.616;2023-02-26T15:34:27;1.77;;;1.15;;
35550;SDS011;21655;46.056;13.616;2023-02-26T15:36:55;2.58;;;1.05;;
35550;SDS011;21655;46.056;13.616;2023-02-26T15:39:22;1.45;;;0.90;;
35550;SDS011;21655;46.056;13.616;2023-02-26T15:41:49;2.80;;;1.05;;
35550;SDS011;21655;46.056;13.616;2023-02-26T15:44:22;2.92;;;0.98;;
35550;SDS011;21655;46.056;13.616;2023-02-26T15:46:58;1.67;;;1.00;;
35550;SDS011;21655;46.056;13.616;2023-02-26T15:49:32;2.22;;;0.90;;
35550;SDS011;21655;46.056;13.616;2023-02-26T15:52:01;1.33;;;0.95;;
35550;SDS011;21655;46.056;13.616;2023-02-26T15:54:33;2.40;;;1.00;;
35550;SDS011;21655;46.056;13.616;2023-02-26T15:57:04;4.00;;;1.20;;
35550;SDS011;21655;46.056;13.616;2023-02-26T15:59:30;1.38;;;0.90;;
35550;SDS011;21655;46.056;13.616;2023-02-26T16:01:57;2.80;;;1.20;;
35550;SDS011;21655;46.056;13.616;2023-02-26T16:04:25;2.22;;;1.00;;
35550;SDS011;21655;46.056;13.616;2023-02-26T16:06:55;2.65;;;1.00;;
35550;SDS011;21655;46.056;13.616;2023-02-26T16:09:33;1.25;;;0.90;;
35550;SDS011;21655;46.056;13.616;2023-02-26T16:12:04;5.03;;;1.25;;
35550;SDS011;21655;46.056;13.616;2023-02-26T16:14:36;2.03;;;1.05;;
35550;SDS011;21655;46.056;13.616;2023-02-26T16:17:05;4.50;;;1.48;;
35550;SDS011;21655;46.056;13.616;2023-02-26T16:19:37;5.65;;;1.02;;
35550;SDS011;21655;46.056;13.616;2023-02-26T16:22:21;2.70;;;1.73;;
35550;SDS011;21655;46.056;13.616;2023-02-26T16:24:57;5.28;;;1.10;;
35550;SDS011;21655;46.056;13.616;2023-02-26T16:27:28;1.98;;;1.00;;
35550;SDS011;21655;46.056;13.616;2023-02-26T16:29:56;1.45;;;0.95;;
35550;SDS011;21655;46.056;13.616;2023-02-26T16:32:24;1.33;;;0.90;;
35550;SDS011;21655;46.056;13.616;2023-02-26T16:34:53;2.38;;;1.10;;
35550;SDS011;21655;46.056;13.616;2023-02-26T16:42:52;3.67;;;1.23;;
35550;SDS011;21655;46.056;13.616;2023-02-26T16:47:50;1.48;;;1.00;;
35550;SDS011;21655;46.056;13.616;2023-02-26T16:50:22;4.20;;;1.50;;
35550;SDS011;21655;46.056;13.616;2023-02-26T16:52:57;2.95;;;1.08;;
35550;SDS011;21655;46.056;13.616;2023-02-26T16:55:33;2.03;;;1.20;;
35550;SDS011;21655;46.056;13.616;2023-02-26T16:58:01;1.35;;;1.00;;
35550;SDS011;21655;46.056;13.616;2023-02-26T17:00:31;2.33;;;1.00;;
35550;SDS011;21655;46.056;13.616;2023-02-26T17:02:58;7.20;;;1.50;;
35550;SDS011;21655;46.056;13.616;2023-02-26T17:05:34;2.08;;;1.20;;
35550;SDS011;21655;46.056;13.616;2023-02-26T17:08:07;1.52;;;1.05;;
35550;SDS011;21655;46.056;13.616;2023-02-26T17:10:42;3.13;;;1.20;;
35550;SDS011;21655;46.056;13.616;2023-02-26T17:13:15;1.15;;;0.90;;
35550;SDS011;21655;46.056;13.616;2023-02-26T17:15:43;2.00;;;1.00;;
35550;SDS011;21655;46.056;13.616;2023-02-26T17:18:10;2.28;;;1.10;;
35550;SDS011;21655;46.056;13.616;2023-02-26T17:20:37;1.70;;;1.05;;
35550;SDS011;21655;46.056;13.616;2023-02-26T17:23:04;1.58;;;1.00;;
35550;SDS011;21655;46.056;13.616;2023-02-26T17:25:39;2.17;;;0.90;;
35550;SDS011;21655;46.056;13.616;2023-02-26T17:28:09;1.30;;;1.00;;
35550;SDS011;21655;46.056;13.616;2023-02-26T17:30:38;1.88;;;1.10;;
35550;SDS011;21655;46.056;13.616;2023-02-26T17:33:04;1.75;;;1.10;;
35550;SDS011;21655;46.056;13.616;2023-02-26T17:35:32;4.43;;;1.38;;
35550;SDS011;21655;46.056;13.616;2023-02-26T17:37:58;2.63;;;1.10;;
35550;SDS011;21655;46.056;13.616;2023-02-26T17:40:29;2.15;;;0.90;;
35550;SDS011;21655;46.056;13.616;2023-02-26T17:43:00;3.05;;;1.08;;
35550;SDS011;21655;46.056;13.616;2023-02-26T17:45:29;1.40;;;0.88;;
35550;SDS011;21655;46.056;13.616;2023-02-26T17:47:56;2.42;;;1.30;;
35550;SDS011;21655;46.056;13.616;2023-02-26T17:51:04;1.63;;;1.00;;
35550;SDS011;21655;46.056;13.616;2023-02-26T17:53:19;1.98;;;1.10;;
35550;SDS011;21655;46.056;13.616;2023-02-26T17:55:47;1.50;;;0.90;;